Time;durP1;ratioP1;P1;durP2;ratioP2;P2;SDS_P1;SDS_P2;PMS_P1;PMS_P2;Temp;Humidity;BMP_temperature;BMP_pressure;BME280_temperature;BME280_humidity;BME280_pressure;Samples;Min_cycle;Max_cycle;Signal;HPM_P1;HPM_P2
2023/10/13 00:00:29;1134787.00;3.78;1972.75;76205.00;0.25;132.48;;;;;22.70;1.00;;;;;;2268207;61;933;-88
2023/10/13 00:03:00;1332187.00;4.44;2331.13;197129.00;0.66;340.98;;;;;22.70;1.00;;;;;;2268061;61;1594;-88
2023/10/13 00:05:30;1520912.00;5.07;2682.53;200418.00;0.67;346.64;;;;;22.70;1.00;;;;;;2268121;61;1035;-87
2023/10/13 00:08:00;1364410.00;4.55;2390.48;224995.00;0.75;388.94;;;;;22.70;1.00;;;;;;2268059;61;1928;-87
2023/10/13 00:10:28;644779.00;2.15;1111.60;106652.00;0.36;185.05;;;;;22.70;1.00;;;;;;2268002;61;1421;-87
2023/10/13 00:13:05;403445.00;1.34;695.73;77185.00;0.26;134.17;;;;;22.60;1.00;;;;;;2268140;61;1419;-88
2023/10/13 00:15:38;839024.00;2.80;1449.27;87958.00;0.29;152.78;;;;;22.60;1.00;;;;;;2268863;61;1299;-89
2023/10/13 00:18:12;272797.00;0.91;471.15;68364.00;0.23;118.93;;;;;22.60;1.00;;;;;;2268818;61;2237;-88
2023/10/13 00:20:49;323956.00;1.08;559.10;72082.00;0.24;125.36;;;;;22.50;1.00;;;;;;2268824;61;1083;-88
2023/10/13 00:23:20;898158.00;2.99;1552.89;121418.00;0.40;210.53;;;;;22.50;1.00;;;;;;2268798;61;1093;-90
2023/10/13 00:25:56;383519.00;1.28;661.47;78350.00;0.26;136.19;;;;;22.60;1.00;;;;;;2268803;61;1425;-88
2023/10/13 00:28:26;328223.00;1.09;566.43;69844.00;0.23;121.49;;;;;22.40;1.00;;;;;;2268672;61;2214;-90
2023/10/13 00:31:00;336811.00;1.12;581.19;70209.00;0.23;122.12;;;;;22.30;1.00;;;;;;2268803;61;1317;-89
2023/10/13 00:33:27;78096.00;0.26;135.75;0.00;0.00;0.62;;;;;22.20;1.00;;;;;;2268743;61;1182;-89
2023/10/13 00:35:57;198089.00;0.66;342.63;0.00;0.00;0.62;;;;;22.30;1.00;;;;;;2268788;61;1017;-87
2023/10/13 00:38:27;0.00;0.00;0.62;0.00;0.00;0.62;;;;;22.20;1.00;;;;;;2268724;61;1097;-88
2023/10/13 00:40:54;121260.00;0.40;210.26;0.00;0.00;0.62;;;;;22.10;1.00;;;;;;2268676;61;1475;-88
2023/10/13 00:43:37;265387.00;0.88;458.41;30932.00;0.10;54.20;;;;;22.10;1.00;;;;;;2268767;61;945;-87
2023/10/13 00:46:07;86028.00;0.29;149.45;0.00;0.00;0.62;;;;;22.10;1.00;;;;;;2268766;61;1168;-89
2023/10/13 00:48:42;113544.00;0.38;196.94;0.00;0.00;0.62;;;;;22.20;1.00;;;;;;2268647;61;1919;-89
2023/10/13 00:51:17;0.00;0.00;0.62;0.00;0.00;0.62;;;;;22.10;1.00;;;;;;2268762;61;1447;-90
2023/10/13 00:53:47;131589.00;0.44;228.07;0.00;0.00;0.62;;;;;22.20;1.00;;;;;;2268655;61;1731;-89
2023/10/13 00:56:22;25306.00;0.08;44.46;0.00;0.00;0.62;;;;;22.10;1.00;;;;;;2268621;61;1142;-85
2023/10/13 00:58:53;56545.00;0.19;98.50;0.00;0.00;0.62;;;;;22.10;1.00;;;;;;2268703;61;1286;-88
2023/10/13 01:01:29;211986.00;0.71;366.55;0.00;0.00;0.62;;;;;22.20;1.00;;;;;;2268658;61;1369;-86
2023/10/13 01:03:59;0.00;0.00;0.62;0.00;0.00;0.62;;;;;22.10;1.00;;;;;;2268597;61;1098;-87
2023/10/13 01:06:25;67488.00;0.22;117.42;0.00;0.00;0.62;;;;;22.20;1.00;;;;;;2268631;61;1156;-88
2023/10/13 01:09:10;387164.00;1.29;667.74;38037.00;0.13;66.49;;;;;22.20;1.00;;;;;;2268573;61;1920;-88
2023/10/13 01:11:37;149687.00;0.50;259.27;0.00;0.00;0.62;;;;;22.20;1.00;;;;;;2268541;61;1348;-88
2023/10/13 01:14:05;213726.00;0.71;369.55;0.00;0.00;0.62;;;;;22.20;1.00;;;;;;2268506;61;1589;-87
2023/10/13 01:16:32;0.00;0.00;0.62;0.00;0.00;0.62;;;;;22.30;1.00;;;;;;2268590;61;913;-87
2023/10/13 01:19:04;223128.00;0.74;385.73;0.00;0.00;0.62;;;;;22.20;1.00;;;;;;2268556;61;1550;-88
2023/10/13 01:21:32;202250.00;0.67;349.80;32063.00;0.11;56.15;;;;;22.10;1.00;;;;;;2268569;61;1471;-88
2023/10/13 01:24:01;220144.00;0.73;380.59;50159.00;0.17;87.46;;;;;21.90;1.00;;;;;;2268547;61;1220;-89
2023/10/13 01:26:27;215779.00;0.72;373.08;0.00;0.00;0.62;;;;;21.80;1.00;;;;;;2268555;61;1332;-87
2023/10/13 01:28:58;273830.00;0.91;472.93;48687.00;0.16;84.92;;;;;21.60;1.00;;;;;;2268486;61;2049;-88
2023/10/13 01:31:26;170514.00;0.57;295.15;0.00;0.00;0.62;;;;;21.60;1.00;;;;;;2268506;61;1444;-85
2023/10/13 01:33:55;358074.00;1.19;617.74;18138.00;0.06;32.05;;;;;21.60;1.00;;;;;;2268479;61;1481;-87
2023/10/13 01:36:21;1266499.00;4.22;2210.92;141464.00;0.47;245.09;;;;;21.40;1.00;;;;;;2268500;61;1462;-89
2023/10/13 01:38:49;1090065.00;3.63;1892.67;159613.00;0.53;276.37;;;;;21.40;1.00;;;;;;2268363;61;1552;-90
2023/10/13 01:41:18;1439518.00;4.80;2529.82;143169.00;0.48;248.03;;;;;21.20;1.00;;;;;;2268303;61;1536;-88
2023/10/13 01:43:45;807423.00;2.69;1394.07;28320.00;0.09;49.68;;;;;21.20;1.00;;;;;;2268472;61;1131;-87
2023/10/13 01:46:13;981154.00;3.27;1699.12;19088.00;0.06;33.69;;;;;21.20;1.00;;;;;;2268257;61;1511;-87
2023/10/13 01:48:41;1266842.00;4.22;2211.55;240304.00;0.80;415.27;;;;;21.20;1.00;;;;;;2268342;61;1917;-87
2023/10/13 01:51:09;595926.00;1.99;1027.19;96356.00;0.32;167.28;;;;;21.20;1.00;;;;;;2268457;61;1300;-87
2023/10/13 01:53:38;381939.00;1.27;658.76;79596.00;0.27;138.34;;;;;21.30;1.00;;;;;;2268458;61;1157;-89
2023/10/13 01:56:09;320629.00;1.07;553.38;74549.00;0.25;129.62;;;;;21.30;1.00;;;;;;2268493;61;1118;-87
2023/10/13 01:58:42;231853.00;0.77;400.74;73769.00;0.25;128.27;;;;;21.20;1.00;;;;;;2268507;61;1181;-88
2023/10/13 02:01:09;220801.00;0.74;381.72;73695.00;0.25;128.15;;;;;21.30;1.00;;;;;;2268365;61;1617;-89
2023/10/13 02:03:41;302448.00;1.01;522.13;70093.00;0.23;121.92;;;;;21.40;1.00;;;;;;2268348;61;1554;-87
2023/10/13 02:06:10;317778.00;1.06;548.48;100159.00;0.33;173.85;;;;;21.60;1.00;;;;;;2268496;61;1479;-87
2023/10/13 02:08:42;107099.00;0.36;185.82;0.00;0.00;0.62;;;;;21.60;1.00;;;;;;2268411;61;1916;-88
2023/10/13 02:11:09;0.00;0.00;0.62;0.00;0.00;0.62;;;;;21.30;1.00;;;;;;2268346;61;1551;-88
2023/10/13 02:13:41;250856.00;0.84;433.42;0.00;0.00;0.62;;;;;21.10;1.00;;;;;;2268380;61;1573;-87
2023/10/13 02:16:11;57096.00;0.19;99.46;0.00;0.00;0.62;;;;;20.90;1.00;;;;;;2268385;61;922;-88
2023/10/13 02:18:43;172404.00;0.57;298.41;0.00;0.00;0.62;;;;;20.80;1.00;;;;;;2268363;61;1511;-89
2023/10/13 02:21:12;45826.00;0.15;79.97;0.00;0.00;0.62;;;;;20.80;1.00;;;;;;2268381;61;1310;-88
2023/10/13 02:23:44;362658.00;1.21;625.62;0.00;0.00;0.62;;;;;20.80;1.00;;;;;;2268400;61;1125;-88
2023/10/13 02:26:15;92236.00;0.31;160.17;0.00;0.00;0.62;;;;;21.00;1.00;;;;;;2268416;61;1167;-88
2023/10/13 02:28:43;145394.00;0.48;251.87;0.00;0.00;0.62;;;;;21.10;1.00;;;;;;2268251;61;1930;-88
2023/10/13 02:31:11;72326.00;0.24;125.78;0.00;0.00;0.62;;;;;21.20;1.00;;;;;;2268348;61;1273;-87
2023/10/13 02:33:44;297303.00;0.99;513.28;78043.00;0.26;135.66;;;;;21.20;1.00;;;;;;2268223;61;1547;-87
2023/10/13 02:36:12;123787.00;0.41;214.61;0.00;0.00;0.62;;;;;21.10;1.00;;;;;;2268207;61;1020;-89
2023/10/13 02:38:45;21179.00;0.07;37.31;0.00;0.00;0.62;;;;;20.90;1.00;;;;;;2268369;61;1092;-88
2023/10/13 02:41:12;82393.00;0.27;143.17;0.00;0.00;0.62;;;;;20.80;1.00;;;;;;2268297;61;1612;-89
2023/10/13 02:43:39;176033.00;0.59;304.66;0.00;0.00;0.62;;;;;20.60;1.00;;;;;;2268315;61;1063;-88
2023/10/13 02:46:05;471121.00;1.57;812.12;64085.00;0.21;111.54;;;;;20.50;1.00;;;;;;2268307;61;1041;-88
2023/10/13 02:48:41;174320.00;0.58;301.71;0.00;0.00;0.62;;;;;20.70;1.00;;;;;;2268308;61;1923;-87
2023/10/13 02:51:15;114914.00;0.38;199.31;0.00;0.00;0.62;;;;;20.70;1.00;;;;;;2268267;61;1499;-88
2023/10/13 02:53:46;73051.00;0.24;127.03;0.00;0.00;0.62;;;;;20.80;1.00;;;;;;2268294;61;1122;-87
2023/10/13 02:56:13;163578.00;0.55;283.20;0.00;0.00;0.62;;;;;20.90;1.00;;;;;;2268224;61;1437;-88
2023/10/13 02:58:45;203396.00;0.68;351.77;31824.00;0.11;55.74;;;;;20.90;1.00;;;;;;2268283;61;1125;-89
2023/10/13 03:01:17;156327.00;0.52;270.71;0.00;0.00;0.62;;;;;20.90;1.00;;;;;;2268300;61;1573;-88
2023/10/13 03:03:49;43551.00;0.15;76.03;0.00;0.00;0.62;;;;;20.80;1.00;;;;;;2268586;61;922;-85
2023/10/13 03:06:16;279878.00;0.93;483.33;0.00;0.00;0.62;;;;;20.80;1.00;;;;;;2268561;61;1601;-87
2023/10/13 03:08:44;377759.00;1.26;651.57;23984.00;0.08;42.17;;;;;20.50;1.00;;;;;;2268398;61;1946;-87
2023/10/13 03:11:11;137818.00;0.46;238.81;0.00;0.00;0.62;;;;;20.40;1.00;;;;;;2268484;61;1826;-86
2023/10/13 03:13:43;482701.00;1.61;832.05;42046.00;0.14;73.43;;;;;20.40;1.00;;;;;;2268434;61;1639;-86
2023/10/13 03:16:15;286506.00;0.96;494.72;80748.00;0.27;140.33;;;;;20.30;1.00;;;;;;2268593;61;1130;-87
2023/10/13 03:18:53;878937.00;2.93;1519.16;102460.00;0.34;177.82;;;;;20.30;1.00;;;;;;2268520;61;1138;-88
2023/10/13 03:21:31;723911.00;2.41;1248.73;20779.00;0.07;36.62;;;;;20.20;1.00;;;;;;2268445;61;1423;-87
2023/10/13 03:24:06;1091581.00;3.64;1895.37;166057.00;0.55;287.47;;;;;20.00;1.00;;;;;;2268457;61;1510;-87
2023/10/13 03:26:37;639526.00;2.13;1102.52;156724.00;0.52;271.39;;;;;19.70;1.00;;;;;;2268439;61;1636;-87
2023/10/13 03:29:08;1360139.00;4.53;2382.60;129274.00;0.43;224.08;;;;;19.70;1.00;;;;;;2268455;61;1997;-89
2023/10/13 03:31:37;742037.00;2.47;1280.21;144023.00;0.48;249.51;;;;;19.70;1.00;;;;;;2268459;61;1338;-88
2023/10/13 03:34:05;880900.00;2.94;1522.60;73042.00;0.24;127.02;;;;;19.70;1.00;;;;;;2268456;61;1705;-88
2023/10/13 03:36:58;926178.00;3.09;1602.14;170195.00;0.57;294.60;;;;;19.70;1.00;;;;;;2268442;61;1026;-90
2023/10/13 03:39:30;1094261.00;3.65;1900.16;112662.00;0.38;195.42;;;;;19.70;1.00;;;;;;2268352;61;1638;-88
2023/10/13 03:41:59;1493852.00;4.98;2631.56;117346.00;0.39;203.50;;;;;19.70;1.00;;;;;;2268443;61;1389;-88
2023/10/13 03:44:30;1286641.00;4.29;2247.68;160149.00;0.53;277.30;;;;;19.60;1.00;;;;;;2268433;61;1610;-88
2023/10/13 03:46:59;775446.00;2.58;1338.33;84955.00;0.28;147.60;;;;;19.50;1.00;;;;;;2268420;61;1553;-88
2023/10/13 03:49:26;174779.00;0.58;302.50;76197.00;0.25;132.47;;;;;19.60;1.00;;;;;;2268211;61;2003;-88
2023/10/13 03:51:57;372681.00;1.24;642.84;80538.00;0.27;139.97;;;;;19.60;1.00;;;;;;2268268;61;1607;-87
2023/10/13 03:54:24;243791.00;0.81;421.27;0.00;0.00;0.62;;;;;19.70;1.00;;;;;;2268440;61;1195;-88
2023/10/13 03:56:56;175613.00;0.59;303.93;8518.00;0.03;15.38;;;;;19.70;1.00;;;;;;2268467;61;931;-88
2023/10/13 03:59:23;15323.00;0.05;27.17;0.00;0.00;0.62;;;;;19.60;1.00;;;;;;2268433;61;1064;-88
2023/10/13 04:01:59;124119.00;0.41;215.19;0.00;0.00;0.62;;;;;19.70;1.00;;;;;;2268314;61;1473;-88
2023/10/13 04:04:42;316159.00;1.05;545.70;0.00;0.00;0.62;;;;;19.40;1.00;;;;;;2268306;61;1565;-88
2023/10/13 04:15:36;87846.00;0.29;152.59;0.00;0.00;0.62;;;;;19.10;1.00;;;;;;2266592;61;1425;-87
2023/10/13 04:18:13;43150.00;0.14;75.34;0.00;0.00;0.62;;;;;19.00;1.00;;;;;;2268364;61;1079;-87
2023/10/13 04:20:46;22773.00;0.08;40.07;0.00;0.00;0.62;;;;;19.10;1.00;;;;;;2268380;61;1013;-87
2023/10/13 04:23:19;208499.00;0.69;360.55;47688.00;0.16;83.19;;;;;19.30;1.00;;;;;;2268418;61;1079;-88
2023/10/13 04:26:20;178928.00;0.60;309.64;0.00;0.00;0.62;;;;;19.20;1.00;;;;;;2268317;61;1005;-87
2023/10/13 04:28:53;479134.00;1.60;825.91;51822.00;0.17;90.34;;;;;19.20;1.00;;;;;;2268283;61;2004;-87
2023/10/13 04:31:46;17094.00;0.06;30.24;0.00;0.00;0.62;;;;;19.50;1.00;;;;;;2268259;61;1473;-87
2023/10/13 04:34:27;119636.00;0.40;207.45;0.00;0.00;0.62;;;;;19.40;1.00;;;;;;2268324;61;1253;-86
2023/10/13 04:37:11;116974.00;0.39;202.86;13322.00;0.04;23.70;;;;;18.90;1.00;;;;;;2268300;61;1556;-87
2023/10/13 04:39:39;83568.00;0.28;145.20;0.00;0.00;0.62;;;;;18.70;1.00;;;;;;2268328;61;1086;-86
2023/10/13 04:44:52;709353.00;2.36;1223.46;125439.00;0.42;217.46;;;;;19.00;1.00;;;;;;2139038;40;3161;-89
2023/10/13 04:47:21;929536.00;3.10;1608.06;135925.00;0.45;235.55;;;;;19.20;1.00;;;;;;2272367;61;1538;-88
2023/10/13 04:49:52;184571.00;0.62;319.36;76447.00;0.25;132.90;;;;;19.50;1.00;;;;;;2272359;61;1934;-88
2023/10/13 04:52:45;155820.00;0.52;269.84;37906.00;0.13;66.27;;;;;19.50;1.00;;;;;;2272259;61;1805;-87
2023/10/13 04:55:43;0.00;0.00;0.62;0.00;0.00;0.62;;;;;19.60;1.00;;;;;;2272331;61;1792;-87
2023/10/13 04:58:14;90255.00;0.30;156.75;24022.00;0.08;42.23;;;;;19.50;1.00;;;;;;2272253;61;2376;-88
2023/10/13 05:01:09;0.00;0.00;0.62;0.00;0.00;0.62;;;;;19.30;1.00;;;;;;2272796;61;1463;-89
2023/10/13 05:03:53;158866.00;0.53;275.09;10046.00;0.03;18.03;;;;;19.50;1.00;;;;;;2272982;61;927;-87
2023/10/13 06:32:25;1173582.00;3.91;2042.53;48555.00;0.16;84.69;;;;;19.70;1.00;;;;;;2266053;61;1339;-90
2023/10/13 06:34:57;211378.00;0.70;365.51;387.00;0.00;1.29;;;;;19.80;1.00;;;;;;2264325;61;1720;-89
2023/10/13 06:42:28;1184860.00;3.95;2062.87;98281.00;0.33;170.60;;;;;19.90;1.00;;;;;;2270883;61;1318;-89
2023/10/13 06:44:56;217215.00;0.72;375.55;0.00;0.00;0.62;;;;;20.10;1.00;;;;;;2292115;55;3739;-89
2023/10/13 06:52:22;1126547.00;3.76;1957.96;0.00;0.00;0.62;;;;;19.90;1.00;;;;;;2265801;61;1266;-88
2023/10/13 06:54:51;601900.00;2.01;1037.50;25056.00;0.08;44.02;;;;;20.00;1.00;;;;;;2312948;41;3703;-88
2023/10/13 07:04:51;472182.00;1.57;813.94;47671.00;0.16;83.16;;;;;20.90;1.00;;;;;;2270313;61;2082;-87
2023/10/13 07:07:18;135433.00;0.45;234.70;0.00;0.00;0.62;;;;;21.30;1.00;;;;;;2268176;61;1175;-87
2023/10/13 07:09:49;470807.00;1.57;811.58;77139.00;0.26;134.10;;;;;21.20;1.00;;;;;;2268174;61;1992;-87
2023/10/13 07:12:22;192685.00;0.64;333.33;53501.00;0.18;93.24;;;;;21.40;1.00;;;;;;2268110;61;1759;-87
2023/10/13 07:14:52;118638.00;0.40;205.73;12122.00;0.04;21.63;;;;;21.40;1.00;;;;;;2268048;61;1687;-89
2023/10/13 07:24:52;832123.00;2.77;1437.20;101611.00;0.34;176.35;;;;;21.50;1.00;;;;;;2269478;61;1419;-90
2023/10/13 07:27:24;303078.00;1.01;523.21;27691.00;0.09;48.59;;;;;21.80;1.00;;;;;;2267708;61;913;-87
2023/10/13 07:30:13;179220.00;0.60;310.15;0.00;0.00;0.62;;;;;21.80;1.00;;;;;;2275202;55;3591;31
2023/10/13 07:37:41;458062.00;1.53;789.65;0.00;0.00;0.62;;;;;22.40;1.00;;;;;;2265773;61;1452;-88
2023/10/13 07:42:40;332743.00;1.11;574.20;27966.00;0.09;49.06;;;;;22.50;1.00;;;;;;2277029;40;3657;-87
2023/10/13 07:47:42;1267159.00;4.22;2212.13;0.00;0.00;0.62;;;;;22.80;1.00;;;;;;1940034;41;3585;-88
2023/10/13 07:57:54;1178094.00;3.93;2050.66;85180.00;0.28;147.98;;;;;23.50;1.00;;;;;;1960780;55;3553;-90
2023/10/13 08:05:39;1265019.00;4.22;2208.23;4052.00;0.01;7.64;;;;;24.60;1.00;;;;;;2269316;61;1237;-89
2023/10/13 08:08:14;52007.00;0.17;90.66;0.00;0.00;0.62;;;;;24.60;1.00;;;;;;2306924;55;3810;-88
2023/10/13 08:18:31;786636.00;2.62;1357.83;0.00;0.00;0.62;;;;;25.10;1.00;;;;;;2273040;40;3481;-90
2023/10/13 08:21:03;126086536.00;420.29;81212144.00;0.00;0.00;0.62;;;;;25.20;1.00;;;;;;2292442;55;3799;-90
2023/10/13 08:26:29;1132192.00;3.77;1968.09;0.00;0.00;0.62;;;;;25.10;1.00;;;;;;2265889;61;1423;-89
2023/10/13 08:31:30;1159691.00;3.87;2017.51;70956.00;0.24;123.41;;;;;24.80;1.00;;;;;;2269524;61;1417;-89
2023/10/13 08:34:06;459551.00;1.53;792.21;58251.00;0.19;101.45;;;;;24.80;1.00;;;;;;2268071;61;1748;-90
2023/10/13 08:36:37;167906.00;0.56;290.66;0.00;0.00;0.62;;;;;24.90;1.00;;;;;;2277474;40;3603;-88
2023/10/13 08:41:53;1323335.00;4.41;2314.87;0.00;0.00;0.62;;;;;24.90;1.00;;;;;;2312588;56;3603;-89
2023/10/13 08:44:33;584891.00;1.95;1008.14;11050.00;0.04;19.77;;;;;25.00;1.00;;;;;;2296253;40;3556;-90
2023/10/13 08:52:45;845786.00;2.82;1461.09;0.00;0.00;0.62;;;;;25.00;1.00;;;;;;2269992;61;1291;-90
2023/10/13 08:55:36;126184.00;0.42;218.75;0.00;0.00;0.62;;;;;25.00;1.00;;;;;;2278898;55;3813;-87
2023/10/13 08:57:53;309500.00;1.03;534.25;17827.00;0.06;31.51;;;;;24.90;1.00;;;;;;2272593;61;1349;-87
2023/10/13 09:00:55;578269.00;1.93;996.71;57988.00;0.19;101.00;;;;;25.00;1.00;;;;;;2318472;56;3822;-87
2023/10/13 09:03:38;101912.00;0.34;176.87;0.00;0.00;0.62;;;;;25.00;1.00;;;;;;2268641;61;1026;-89
2023/10/13 09:06:06;313224.00;1.04;540.65;50946.00;0.17;88.82;;;;;25.10;1.00;;;;;;2272828;55;3929;-88
2023/10/13 09:08:44;424848.00;1.42;732.53;50744.00;0.17;88.47;;;;;25.10;1.00;;;;;;2272571;61;2017;-88
2023/10/13 09:11:12;15771.00;0.05;27.95;0.00;0.00;0.62;;;;;25.30;1.00;;;;;;2272751;61;1382;-88
2023/10/13 09:13:43;290857.00;0.97;502.20;40789.00;0.14;71.25;;;;;25.60;1.00;;;;;;2272535;61;1285;-88
2023/10/13 09:16:22;294013.00;0.98;507.63;0.00;0.00;0.62;;;;;26.00;1.00;;;;;;2272608;61;1606;-87
2023/10/13 09:18:52;77719.00;0.26;135.10;0.00;0.00;0.62;;;;;25.70;1.00;;;;;;2272713;61;1715;-87
2023/10/13 09:24:21;250509.00;0.84;432.83;80091.00;0.27;139.19;;;;;25.60;1.00;;;;;;2277592;40;3644;-88
2023/10/13 09:26:49;288940.00;0.96;498.91;20618.00;0.07;36.34;;;;;26.00;1.00;;;;;;2272759;61;1245;-87
2023/10/13 09:29:20;432158.00;1.44;745.10;37537.00;0.13;65.63;;;;;26.20;1.00;;;;;;2272473;61;1992;-88
2023/10/13 09:31:50;460820.00;1.54;794.40;0.00;0.00;0.62;;;;;26.40;1.00;;;;;;2272504;61;1379;-87
2023/10/13 09:34:29;309478.00;1.03;534.21;0.00;0.00;0.62;;;;;26.80;1.00;;;;;;2272548;61;1156;-86
2023/10/13 09:36:58;576321.00;1.92;993.35;87542.00;0.29;152.06;;;;;26.60;1.00;;;;;;2272514;61;1177;-86
2023/10/13 09:39:44;629294.00;2.10;1084.83;20999.00;0.07;37.00;;;;;26.20;1.00;;;;;;2272602;61;1033;-86
2023/10/13 09:42:12;272677.00;0.91;470.95;42425.00;0.14;74.08;;;;;26.40;1.00;;;;;;2272472;61;1438;-87
2023/10/13 09:44:40;203754.00;0.68;352.39;0.00;0.00;0.62;;;;;26.30;1.00;;;;;;2272494;61;1188;-87
2023/10/13 09:47:17;457834.00;1.53;789.26;0.00;0.00;0.62;;;;;26.60;1.00;;;;;;2272398;61;1013;-86
2023/10/13 09:49:44;204040.00;0.68;352.88;0.00;0.00;0.62;;;;;26.50;1.00;;;;;;2315079;40;3634;-87
2023/10/13 09:52:19;608372.00;2.03;1048.68;7830.00;0.03;14.19;;;;;26.90;1.00;;;;;;2272323;61;1607;-87
2023/10/13 09:54:59;229556.00;0.77;396.78;8867.00;0.03;15.99;;;;;27.00;1.00;;;;;;2272456;61;1541;-88
2023/10/13 09:57:34;226922.00;0.76;392.25;0.00;0.00;0.62;;;;;27.00;1.00;;;;;;2272544;61;1331;-89
2023/10/13 10:00:26;284327.00;0.95;490.98;39217.00;0.13;68.53;;;;;26.80;1.00;;;;;;2272416;61;1480;-87
2023/10/13 10:02:58;213818.00;0.71;369.71;20029.00;0.07;35.32;;;;;26.80;1.00;;;;;;2272470;61;1657;-87
2023/10/13 10:05:25;418078.00;1.39;720.89;37033.00;0.12;64.75;;;;;27.30;1.00;;;;;;2272447;61;1732;-87
2023/10/13 10:07:58;338644.00;1.13;584.34;0.00;0.00;0.62;;;;;27.60;1.00;;;;;;2272444;61;1692;-89
2023/10/13 10:10:41;165377.00;0.55;286.30;6574.00;0.02;12.01;;;;;27.90;1.00;;;;;;2272396;61;2004;-87
2023/10/13 10:13:20;261926.00;0.87;452.46;0.00;0.00;0.62;;;;;28.10;1.00;;;;;;2272453;61;1599;-87
2023/10/13 10:15:51;395141.00;1.32;681.45;0.00;0.00;0.62;;;;;28.20;1.00;;;;;;2272382;61;1557;-88
2023/10/13 10:18:25;438916.00;1.46;756.72;19613.00;0.07;34.60;;;;;27.90;1.00;;;;;;2272466;61;1533;-87
2023/10/13 10:20:54;525625.00;1.75;905.95;67460.00;0.22;117.37;;;;;27.60;1.00;;;;;;2272384;61;1431;-87
2023/10/13 10:23:27;212613.00;0.71;367.63;0.00;0.00;0.62;;;;;27.90;1.00;;;;;;2272466;61;1079;-86
2023/10/13 10:26:07;195179.00;0.65;337.62;0.00;0.00;0.62;;;;;28.40;1.00;;;;;;2272483;61;1410;-88
2023/10/13 10:28:39;260770.00;0.87;450.47;9613.00;0.03;17.28;;;;;28.70;1.00;;;;;;2272593;61;1258;-88
2023/10/13 10:31:09;199097.00;0.66;344.37;0.00;0.00;0.62;;;;;28.80;1.00;;;;;;2272457;61;1940;-89
2023/10/13 10:33:36;250302.00;0.83;432.47;20244.00;0.07;35.69;;;;;28.50;1.00;;;;;;2272428;61;1714;-87
2023/10/13 10:36:05;430036.00;1.43;741.45;52348.00;0.17;91.25;;;;;28.40;1.00;;;;;;2272470;61;1487;-87
2023/10/13 10:38:38;136104.00;0.45;235.85;0.00;0.00;0.62;;;;;28.20;1.00;;;;;;2278509;55;3783;-85
2023/10/13 10:41:09;140372.00;0.47;243.21;0.00;0.00;0.62;;;;;28.30;1.00;;;;;;2272292;61;1559;-89
2023/10/13 10:43:45;112711.00;0.38;195.51;0.00;0.00;0.62;;;;;28.80;1.00;;;;;;2272372;61;1191;-89
2023/10/13 10:46:24;188562.00;0.63;326.23;0.00;0.00;0.62;;;;;29.30;1.00;;;;;;2283855;55;3823;-89
2023/10/13 10:48:56;222103.00;0.74;383.96;0.00;0.00;0.62;;;;;29.10;1.00;;;;;;2284418;40;3626;-88
2023/10/13 10:53:57;1706336.00;5.69;3037.74;0.00;0.00;0.62;;;;;28.50;1.00;;;;;;2286149;40;3493;-88
2023/10/13 10:56:36;218688.00;0.73;378.09;65728.00;0.22;114.38;;;;;28.60;1.00;;;;;;2272303;61;1028;-89
2023/10/13 10:59:08;256161.00;0.85;442.55;49776.00;0.17;86.80;;;;;28.90;1.00;;;;;;2272331;61;1555;-87
2023/10/13 11:01:47;80650.00;0.27;140.16;0.00;0.00;0.62;;;;;28.90;1.00;;;;;;2272064;61;1279;-89
2023/10/13 11:06:48;1253961.00;4.18;2188.09;0.00;0.00;0.62;;;;;29.40;1.00;;;;;;2286884;56;3651;-89
2023/10/13 11:09:31;467298.00;1.56;805.54;60652.00;0.20;105.60;;;;;29.30;1.00;;;;;;2283992;55;3787;-87
2023/10/13 11:12:14;254312.00;0.85;439.37;0.00;0.00;0.62;;;;;29.40;1.00;;;;;;2281983;55;3849;-89
2023/10/13 11:14:46;170173.00;0.57;294.56;0.00;0.00;0.62;;;;;29.30;1.00;;;;;;2290411;40;3613;-89
2023/10/13 11:17:24;353359.00;1.18;609.63;57784.00;0.19;100.65;;;;;29.40;1.00;;;;;;2280882;55;3789;-88
2023/10/13 11:30:05;850670.00;2.84;1469.64;0.00;0.00;0.62;;;;;29.80;1.00;;;;;;2266311;61;1879;-91
2023/10/13 11:32:34;652293.00;2.17;1124.60;161884.00;0.54;280.29;;;;;29.80;1.00;;;;;;2316975;56;3750;-88
2023/10/13 11:55:49;942140.00;3.14;1630.26;0.00;0.00;0.62;;;;;29.10;1.00;;;;;;2316813;41;3495;-86
2023/10/13 12:01:19;1248194.00;4.16;2177.60;0.00;0.00;0.62;;;;;28.70;1.00;;;;;;2265864;61;1570;-85
2023/10/13 12:06:46;146431.00;0.49;253.66;0.00;0.00;0.62;;;;;29.20;1.00;;;;;;2264204;61;715;-88
2023/10/13 12:09:41;301256.00;1.00;520.08;0.00;0.00;0.62;;;;;29.30;1.00;;;;;;2264091;61;1915;-89
2023/10/13 12:14:55;1176603.00;3.92;2047.97;0.00;0.00;0.62;;;;;29.50;1.00;;;;;;2303533;55;3700;-91
2023/10/13 12:19:58;1026824.00;3.42;1780.04;49319.00;0.16;86.01;;;;;29.90;1.00;;;;;;1611659;40;3638;-90
2023/10/13 12:25:04;1324499.00;4.41;2317.01;38878.00;0.13;67.95;;;;;29.90;1.00;;;;;;1558512;56;3636;-88
2023/10/13 12:30:13;403702.00;1.35;696.17;0.00;0.00;0.62;;;;;29.80;1.00;;;;;;1221747;40;3272;-90
2023/10/13 12:35:27;1034078.00;3.45;1792.92;90856.00;0.30;157.79;;;;;29.60;1.00;;;;;;1505905;41;3589;-89
2023/10/13 12:38:04;312149.00;1.04;538.80;0.00;0.00;0.62;;;;;29.70;1.00;;;;;;2311163;40;3637;-90
2023/10/13 12:49:17;0.00;0.00;0.62;0.00;0.00;0.62;;;;;30.10;1.00;;;;;;2257267;61;1519;-88
2023/10/13 12:59:17;1593606.00;5.31;2820.53;78748.00;0.26;136.87;;;;;30.80;1.00;;;;;;2266492;61;1252;-90
2023/10/13 13:01:57;244002.00;0.81;421.63;43344.00;0.14;75.67;;;;;30.50;1.00;;;;;;2264417;61;1583;-90
2023/10/13 13:17:19;456072.00;1.52;786.23;72833.00;0.24;126.66;;;;;30.10;1.00;;;;;;1282522;40;3270;-90
2023/10/13 13:38:09;1368412.00;4.56;2397.87;0.00;0.00;0.62;;;;;30.50;1.00;;;;;;2290598;55;3669;-90
2023/10/13 13:43:06;1235657.00;4.12;2154.82;9510.00;0.03;17.10;;;;;30.30;1.00;;;;;;1580071;56;3614;-90
2023/10/13 13:50:41;1122349.00;3.74;1950.44;0.00;0.00;0.62;;;;;30.50;1.00;;;;;;2044227;55;3584;-92
2023/10/13 14:03:33;1224164.00;4.08;2133.97;79233.00;0.26;137.71;;;;;30.40;1.00;;;;;;2287940;41;3554;-91
2023/10/13 14:08:38;1129883.00;3.77;1963.95;0.00;0.00;0.62;;;;;29.90;1.00;;;;;;2266024;61;1349;-89
2023/10/13 14:11:22;214540.00;0.72;370.95;0.00;0.00;0.62;;;;;29.80;1.00;;;;;;2305305;41;3609;-91
2023/10/13 14:13:55;45622.00;0.15;79.61;0.00;0.00;0.62;;;;;29.80;1.00;;;;;;2274013;55;3721;-88
2023/10/13 14:16:26;168536.00;0.56;291.74;0.00;0.00;0.62;;;;;29.90;1.00;;;;;;2272410;61;1427;-88
2023/10/13 14:19:01;628785.00;2.10;1083.95;0.00;0.00;0.62;;;;;29.80;1.00;;;;;;2288252;40;3614;-90
2023/10/13 14:26:43;1602863.00;5.34;2838.21;47128.00;0.16;82.22;;;;;29.90;1.00;;;;;;2269766;61;1403;-89
2023/10/13 14:29:19;360412.00;1.20;621.76;0.00;0.00;0.62;;;;;29.90;1.00;;;;;;2302671;56;3706;-89
2023/10/13 14:47:48;1086113.00;3.62;1885.61;0.00;0.00;0.62;;;;;29.60;1.00;;;;;;2269778;61;1218;-90
2023/10/13 14:53:00;1304469.00;4.35;2280.29;72739.00;0.24;126.49;;;;;29.60;1.00;;;;;;2265648;61;1410;-89
2023/10/13 14:55:39;445060.00;1.48;767.29;71517.00;0.24;124.38;;;;;29.60;1.00;;;;;;2282972;56;3701;-90
2023/10/13 14:58:16;537306.00;1.79;926.08;62641.00;0.21;109.04;;;;;29.70;1.00;;;;;;2272308;61;1541;-90
2023/10/13 15:03:37;1625559.00;5.42;2881.69;25465.00;0.08;44.73;;;;;29.90;1.00;;;;;;2269603;61;1396;-89
2023/10/13 15:06:05;308440.00;1.03;532.43;0.00;0.00;0.62;;;;;29.70;1.00;;;;;;2268257;61;1138;-91
2023/10/13 15:11:14;1817106.00;6.06;3255.30;1848.00;0.01;3.82;;;;;29.10;1.00;;;;;;2288951;55;3684;-90
2023/10/13 15:16:38;1256996.00;4.19;2193.62;0.00;0.00;0.62;;;;;29.00;1.00;;;;;;2274169;55;3595;-88
2023/10/13 15:19:11;197861.00;0.66;342.24;0.00;0.00;0.62;;;;;29.10;1.00;;;;;;2272130;61;1442;-89
2023/10/13 15:21:53;430356.00;1.43;742.00;0.00;0.00;0.62;;;;;29.00;1.00;;;;;;2302714;56;3727;-88
2023/10/13 15:29:51;1582078.00;5.27;2798.54;0.00;0.00;0.62;;;;;29.20;1.00;;;;;;2265590;61;1258;-88
2023/10/13 15:32:46;179919.00;0.60;311.35;0.00;0.00;0.62;;;;;29.20;1.00;;;;;;2269960;55;3815;-89
2023/10/13 15:35:22;295556.00;0.99;510.28;0.00;0.00;0.62;;;;;29.50;1.00;;;;;;2267883;61;1438;-90